sensor_id;sensor_type;location;lat;lon;timestamp;temperature;humidity
802;DHT22;383;48.766;9.270;2023-07-13T00:00:46;22.50;60.90
802;DHT22;383;48.766;9.270;2023-07-13T00:03:13;22.50;61.50
802;DHT22;383;48.766;9.270;2023-07-13T00:05:40;22.40;61.80
802;DHT22;383;48.766;9.270;2023-07-13T00:08:08;22.40;62.10
802;DHT22;383;48.766;9.270;2023-07-13T00:10:39;22.30;61.30
802;DHT22;383;48.766;9.270;2023-07-13T00:13:06;22.30;62.10
802;DHT22;383;48.766;9.270;2023-07-13T00:15:34;22.20;62.90
802;DHT22;383;48.766;9.270;2023-07-13T00:18:01;22.20;63.00
802;DHT22;383;48.766;9.270;2023-07-13T00:20:27;22.20;62.70
802;DHT22;383;48.766;9.270;2023-07-13T00:22:54;22.10;61.40
802;DHT22;383;48.766;9.270;2023-07-13T00:25:23;22.10;61.00
802;DHT22;383;48.766;9.270;2023-07-13T00:27:51;22.10;62.50
802;DHT22;383;48.766;9.270;2023-07-13T00:30:18;22.10;62.30
802;DHT22;383;48.766;9.270;2023-07-13T00:32:45;22.00;63.10
802;DHT22;383;48.766;9.270;2023-07-13T00:35:13;22.00;63.10
802;DHT22;383;48.766;9.270;2023-07-13T00:37:41;22.00;63.40
802;DHT22;383;48.766;9.270;2023-07-13T00:40:09;22.00;64.10
802;DHT22;383;48.766;9.270;2023-07-13T00:42:37;21.90;64.10
802;DHT22;383;48.766;9.270;2023-07-13T00:45:07;21.80;64.70
802;DHT22;383;48.766;9.270;2023-07-13T00:47:34;21.80;64.60
802;DHT22;383;48.766;9.270;2023-07-13T00:50:01;21.70;65.20
802;DHT22;383;48.766;9.270;2023-07-13T00:52:29;21.60;66.30
802;DHT22;383;48.766;9.270;2023-07-13T00:54:56;21.50;66.40
802;DHT22;383;48.766;9.270;2023-07-13T00:57:23;21.40;66.80
802;DHT22;383;48.766;9.270;2023-07-13T00:59:54;21.40;67.80
802;DHT22;383;48.766;9.270;2023-07-13T01:02:22;21.30;68.40
802;DHT22;383;48.766;9.270;2023-07-13T01:04:50;21.30;68.60
802;DHT22;383;48.766;9.270;2023-07-13T01:07:18;21.20;67.50
802;DHT22;383;48.766;9.270;2023-07-13T01:09:45;21.10;68.80
802;DHT22;383;48.766;9.270;2023-07-13T01:12:12;21.10;69.20
802;DHT22;383;48.766;9.270;2023-07-13T01:14:39;21.00;68.90
802;DHT22;383;48.766;9.270;2023-07-13T01:17:08;21.00;68.70
802;DHT22;383;48.766;9.270;2023-07-13T01:19:38;21.00;69.50
802;DHT22;383;48.766;9.270;2023-07-13T01:22:08;20.90;68.60
802;DHT22;383;48.766;9.270;2023-07-13T01:24:37;20.90;69.20
802;DHT22;383;48.766;9.270;2023-07-13T01:27:05;20.90;68.00
802;DHT22;383;48.766;9.270;2023-07-13T01:29:34;20.80;68.60
802;DHT22;383;48.766;9.270;2023-07-13T01:32:07;20.80;68.60
802;DHT22;383;48.766;9.270;2023-07-13T01:34:34;20.70;68.80
802;DHT22;383;48.766;9.270;2023-07-13T01:37:02;20.70;68.70
802;DHT22;383;48.766;9.270;2023-07-13T01:39:30;20.60;69.90
802;DHT22;383;48.766;9.270;2023-07-13T01:41:58;20.50;70.70
802;DHT22;383;48.766;9.270;2023-07-13T01:44:25;20.50;70.40
802;DHT22;383;48.766;9.270;2023-07-13T01:46:52;20.40;70.40
802;DHT22;383;48.766;9.270;2023-07-13T01:49:19;20.40;70.40
802;DHT22;383;48.766;9.270;2023-07-13T01:51:45;20.30;70.80
802;DHT22;383;48.766;9.270;2023-07-13T01:54:12;20.20;71.10
802;DHT22;383;48.766;9.270;2023-07-13T01:56:40;20.20;71.50
802;DHT22;383;48.766;9.270;2023-07-13T02:01:34;20.00;71.90
802;DHT22;383;48.766;9.270;2023-07-13T02:04:01;19.90;72.60
802;DHT22;383;48.766;9.270;2023-07-13T02:06:27;19.90;71.60
802;DHT22;383;48.766;9.270;2023-07-13T02:08:54;19.80;72.40
802;DHT22;383;48.766;9.270;2023-07-13T02:11:21;19.80;72.30
802;DHT22;383;48.766;9.270;2023-07-13T02:13:49;19.70;72.30
802;DHT22;383;48.766;9.270;2023-07-13T02:16:16;19.60;72.90
802;DHT22;383;48.766;9.270;2023-07-13T02:18:42;19.60;72.10
802;DHT22;383;48.766;9.270;2023-07-13T02:21:09;19.50;73.60
802;DHT22;383;48.766;9.270;2023-07-13T02:23:36;19.40;73.80
802;DHT22;383;48.766;9.270;2023-07-13T02:26:03;19.40;73.40
802;DHT22;383;48.766;9.270;2023-07-13T02:28:30;19.40;73.60
802;DHT22;383;48.766;9.270;2023-07-13T02:31:06;19.30;74.10
802;DHT22;383;48.766;9.270;2023-07-13T02:33:33;19.20;75.20
802;DHT22;383;48.766;9.270;2023-07-13T02:35:59;19.20;74.40
802;DHT22;383;48.766;9.270;2023-07-13T02:38:26;19.20;73.60
802;DHT22;383;48.766;9.270;2023-07-13T02:40:53;19.20;73.80
802;DHT22;383;48.766;9.270;2023-07-13T02:43:20;19.20;74.40
802;DHT22;383;48.766;9.270;2023-07-13T03:31:05;18.10;79.10
802;DHT22;383;48.766;9.270;2023-07-13T03:33:32;18.10;79.30
802;DHT22;383;48.766;9.270;2023-07-13T03:35:59;18.00;79.40
802;DHT22;383;48.766;9.270;2023-07-13T03:38:26;18.10;79.30
802;DHT22;383;48.766;9.270;2023-07-13T03:40:53;18.10;79.30
802;DHT22;383;48.766;9.270;2023-07-13T03:43:20;18.20;79.00
802;DHT22;383;48.766;9.270;2023-07-13T03:45:47;18.30;78.60
802;DHT22;383;48.766;9.270;2023-07-13T03:48:15;18.40;77.90
802;DHT22;383;48.766;9.270;2023-07-13T03:50:42;18.40;77.90
802;DHT22;383;48.766;9.270;2023-07-13T03:53:09;18.40;78.30
802;DHT22;383;48.766;9.270;2023-07-13T03:55:35;18.40;78.30
802;DHT22;383;48.766;9.270;2023-07-13T03:58:24;18.50;78.10
802;DHT22;383;48.766;9.270;2023-07-13T04:00:52;18.50;78.60
802;DHT22;383;48.766;9.270;2023-07-13T04:03:20;18.50;78.90
802;DHT22;383;48.766;9.270;2023-07-13T04:05:47;18.50;78.90
802;DHT22;383;48.766;9.270;2023-07-13T04:08:14;18.60;77.80
802;DHT22;383;48.766;9.270;2023-07-13T04:10:41;18.70;78.20
802;DHT22;383;48.766;9.270;2023-07-13T04:13:08;18.70;78.30
802;DHT22;383;48.766;9.270;2023-07-13T04:15:35;18.80;78.20
802;DHT22;383;48.766;9.270;2023-07-13T04:18:02;18.90;77.90
802;DHT22;383;48.766;9.270;2023-07-13T04:20:30;19.00;77.40
802;DHT22;383;48.766;9.270;2023-07-13T04:22:58;19.00;77.70
802;DHT22;383;48.766;9.270;2023-07-13T04:25:24;19.00;77.70
802;DHT22;383;48.766;9.270;2023-07-13T04:27:52;19.00;78.10
802;DHT22;383;48.766;9.270;2023-07-13T04:30:18;19.00;78.30
802;DHT22;383;48.766;9.270;2023-07-13T04:32:45;19.00;78.30
802;DHT22;383;48.766;9.270;2023-07-13T04:35:12;19.20;78.10
802;DHT22;383;48.766;9.270;2023-07-13T04:37:41;19.30;77.50
802;DHT22;383;48.766;9.270;2023-07-13T04:40:08;19.30;77.70
802;DHT22;383;48.766;9.270;2023-07-13T04:42:37;19.30;77.10
802;DHT22;383;48.766;9.270;2023-07-13T04:45:05;19.40;77.30
802;DHT22;383;48.766;9.270;2023-07-13T04:47:32;19.40;76.90
802;DHT22;383;48.766;9.270;2023-07-13T04:49:59;19.50;76.50
802;DHT22;383;48.766;9.270;2023-07-13T04:52:25;19.50;76.60
802;DHT22;383;48.766;9.270;2023-07-13T04:54:56;19.50;76.60
802;DHT22;383;48.766;9.270;2023-07-13T04:57:23;19.60;76.20
802;DHT22;383;48.766;9.270;2023-07-13T04:59:50;19.60;75.60
802;DHT22;383;48.766;9.270;2023-07-13T05:02:16;19.60;76.20
802;DHT22;383;48.766;9.270;2023-07-13T05:04:46;19.60;76.90
802;DHT22;383;48.766;9.270;2023-07-13T05:07:13;19.60;77.00
802;DHT22;383;48.766;9.270;2023-07-13T05:09:40;19.70;75.60
802;DHT22;383;48.766;9.270;2023-07-13T05:12:09;19.80;76.00
802;DHT22;383;48.766;9.270;2023-07-13T05:14:36;19.80;76.60
802;DHT22;383;48.766;9.270;2023-07-13T05:17:03;19.80;76.60
802;DHT22;383;48.766;9.270;2023-07-13T05:19:30;19.90;76.90
802;DHT22;383;48.766;9.270;2023-07-13T05:21:57;20.00;76.60
802;DHT22;383;48.766;9.270;2023-07-13T05:24:23;20.00;77.00
802;DHT22;383;48.766;9.270;2023-07-13T05:26:50;20.20;76.50
802;DHT22;383;48.766;9.270;2023-07-13T05:29:18;20.30;76.10
802;DHT22;383;48.766;9.270;2023-07-13T05:31:45;20.40;74.90
802;DHT22;383;48.766;9.270;2023-07-13T05:34:12;20.50;73.30
802;DHT22;383;48.766;9.270;2023-07-13T05:36:39;20.60;71.70
802;DHT22;383;48.766;9.270;2023-07-13T05:39:06;20.80;70.90
802;DHT22;383;48.766;9.270;2023-07-13T05:41:32;20.90;70.30
802;DHT22;383;48.766;9.270;2023-07-13T05:43:59;21.00;70.30
802;DHT22;383;48.766;9.270;2023-07-13T05:46:27;21.00;68.00
802;DHT22;383;48.766;9.270;2023-07-13T05:48:56;21.10;66.80
802;DHT22;383;48.766;9.270;2023-07-13T05:51:23;21.20;66.70
802;DHT22;383;48.766;9.270;2023-07-13T05:53:50;21.20;65.60
802;DHT22;383;48.766;9.270;2023-07-13T05:56:16;21.20;66.40
802;DHT22;383;48.766;9.270;2023-07-13T05:58:43;21.30;66.70
802;DHT22;383;48.766;9.270;2023-07-13T06:01:12;21.40;65.40
802;DHT22;383;48.766;9.270;2023-07-13T06:03:41;21.40;65.50
802;DHT22;383;48.766;9.270;2023-07-13T06:06:09;21.50;65.40
802;DHT22;383;48.766;9.270;2023-07-13T06:08:36;21.50;64.30
802;DHT22;383;48.766;9.270;2023-07-13T06:11:03;21.60;62.90
802;DHT22;383;48.766;9.270;2023-07-13T06:13:30;21.60;63.90
802;DHT22;383;48.766;9.270;2023-07-13T06:15:57;21.60;64.10
802;DHT22;383;48.766;9.270;2023-07-13T06:18:24;21.70;62.50
802;DHT22;383;48.766;9.270;2023-07-13T06:20:52;21.70;63.30
802;DHT22;383;48.766;9.270;2023-07-13T06:23:18;21.80;63.00
802;DHT22;383;48.766;9.270;2023-07-13T06:25:45;21.80;62.90
802;DHT22;383;48.766;9.270;2023-07-13T06:28:11;21.80;62.50
802;DHT22;383;48.766;9.270;2023-07-13T06:30:38;22.00;62.70
802;DHT22;383;48.766;9.270;2023-07-13T06:33:05;22.10;63.40
802;DHT22;383;48.766;9.270;2023-07-13T06:35:32;22.10;61.50
802;DHT22;383;48.766;9.270;2023-07-13T06:38:00;22.20;59.20
802;DHT22;383;48.766;9.270;2023-07-13T06:40:27;22.30;58.70
802;DHT22;383;48.766;9.270;2023-07-13T06:42:55;22.30;60.90
802;DHT22;383;48.766;9.270;2023-07-13T06:45:22;22.30;59.80
802;DHT22;383;48.766;9.270;2023-07-13T06:47:49;22.30;60.00
802;DHT22;383;48.766;9.270;2023-07-13T06:50:16;22.40;61.00
802;DHT22;383;48.766;9.270;2023-07-13T06:52:42;22.50;56.60
802;DHT22;383;48.766;9.270;2023-07-13T06:55:11;22.70;55.20
802;DHT22;383;48.766;9.270;2023-07-13T06:57:37;22.60;57.10
802;DHT22;383;48.766;9.270;2023-07-13T07:00:05;22.70;58.20
802;DHT22;383;48.766;9.270;2023-07-13T07:02:35;22.80;55.90
802;DHT22;383;48.766;9.270;2023-07-13T07:05:02;22.90;55.40
802;DHT22;383;48.766;9.270;2023-07-13T07:07:28;22.90;55.40
802;DHT22;383;48.766;9.270;2023-07-13T07:09:55;22.90;56.60
802;DHT22;383;48.766;9.270;2023-07-13T07:12:23;23.00;55.90
802;DHT22;383;48.766;9.270;2023-07-13T07:14:49;23.10;56.60
802;DHT22;383;48.766;9.270;2023-07-13T07:17:16;23.20;56.60
802;DHT22;383;48.766;9.270;2023-07-13T07:19:43;23.30;53.30
802;DHT22;383;48.766;9.270;2023-07-13T07:22:09;23.50;51.60
802;DHT22;383;48.766;9.270;2023-07-13T07:24:36;23.40;52.50
802;DHT22;383;48.766;9.270;2023-07-13T07:27:03;23.30;52.30
802;DHT22;383;48.766;9.270;2023-07-13T07:29:32;23.30;51.60
802;DHT22;383;48.766;9.270;2023-07-13T07:31:59;23.30;51.60
802;DHT22;383;48.766;9.270;2023-07-13T07:34:26;23.30;51.90
802;DHT22;383;48.766;9.270;2023-07-13T07:36:53;23.40;50.50
802;DHT22;383;48.766;9.270;2023-07-13T07:39:19;23.30;50.20
802;DHT22;383;48.766;9.270;2023-07-13T07:41:46;23.30;49.40
802;DHT22;383;48.766;9.270;2023-07-13T07:44:13;23.40;48.40
802;DHT22;383;48.766;9.270;2023-07-13T07:46:41;23.40;49.70
802;DHT22;383;48.766;9.270;2023-07-13T07:49:07;23.50;49.50
802;DHT22;383;48.766;9.270;2023-07-13T07:51:34;23.50;48.60
802;DHT22;383;48.766;9.270;2023-07-13T07:54:01;23.50;48.60
802;DHT22;383;48.766;9.270;2023-07-13T07:56:28;23.60;49.20
802;DHT22;383;48.766;9.270;2023-07-13T07:58:54;23.80;49.00
802;DHT22;383;48.766;9.270;2023-07-13T08:01:21;23.90;49.50
802;DHT22;383;48.766;9.270;2023-07-13T08:03:49;23.90;49.30
802;DHT22;383;48.766;9.270;2023-07-13T08:06:16;24.00;49.30
802;DHT22;383;48.766;9.270;2023-07-13T08:08:45;24.00;49.20
802;DHT22;383;48.766;9.270;2023-07-13T08:11:11;24.00;50.70
802;DHT22;383;48.766;9.270;2023-07-13T08:13:38;24.00;49.70
802;DHT22;383;48.766;9.270;2023-07-13T08:16:05;24.00;49.90
802;DHT22;383;48.766;9.270;2023-07-13T08:18:32;24.10;50.00
802;DHT22;383;48.766;9.270;2023-07-13T08:21:04;24.30;48.20
802;DHT22;383;48.766;9.270;2023-07-13T08:23:31;24.30;48.70
802;DHT22;383;48.766;9.270;2023-07-13T08:25:57;24.40;48.70
802;DHT22;383;48.766;9.270;2023-07-13T08:28:27;24.60;47.40
802;DHT22;383;48.766;9.270;2023-07-13T08:30:54;24.70;48.30
802;DHT22;383;48.766;9.270;2023-07-13T08:33:22;24.70;47.20
802;DHT22;383;48.766;9.270;2023-07-13T08:35:49;24.70;48.20
802;DHT22;383;48.766;9.270;2023-07-13T08:38:18;24.80;47.90
802;DHT22;383;48.766;9.270;2023-07-13T08:40:50;24.90;46.40
802;DHT22;383;48.766;9.270;2023-07-13T08:43:23;24.90;46.40
802;DHT22;383;48.766;9.270;2023-07-13T08:45:54;25.00;46.20
802;DHT22;383;48.766;9.270;2023-07-13T08:48:26;25.10;46.60
802;DHT22;383;48.766;9.270;2023-07-13T08:50:58;25.20;45.60
802;DHT22;383;48.766;9.270;2023-07-13T08:53:32;25.30;46.80
802;DHT22;383;48.766;9.270;2023-07-13T08:56:00;25.40;46.70
802;DHT22;383;48.766;9.270;2023-07-13T08:58:28;25.60;44.70
802;DHT22;383;48.766;9.270;2023-07-13T09:01:01;25.60;44.50
802;DHT22;383;48.766;9.270;2023-07-13T09:03:37;25.60;45.10
802;DHT22;383;48.766;9.270;2023-07-13T09:06:06;25.50;46.60
802;DHT22;383;48.766;9.270;2023-07-13T09:08:46;25.70;46.10
802;DHT22;383;48.766;9.270;2023-07-13T09:11:28;25.80;45.50
802;DHT22;383;48.766;9.270;2023-07-13T09:14:00;25.80;45.60
802;DHT22;383;48.766;9.270;2023-07-13T09:16:30;25.80;45.90
802;DHT22;383;48.766;9.270;2023-07-13T09:19:01;25.90;45.60
802;DHT22;383;48.766;9.270;2023-07-13T09:21:31;25.90;46.90
802;DHT22;383;48.766;9.270;2023-07-13T09:24:14;25.90;46.40
802;DHT22;383;48.766;9.270;2023-07-13T09:26:47;26.00;45.10
802;DHT22;383;48.766;9.270;2023-07-13T09:29:27;26.20;45.10
802;DHT22;383;48.766;9.270;2023-07-13T09:31:57;26.30;45.60
802;DHT22;383;48.766;9.270;2023-07-13T09:34:26;26.30;45.60
802;DHT22;383;48.766;9.270;2023-07-13T09:36:52;26.20;46.10
802;DHT22;383;48.766;9.270;2023-07-13T09:39:24;26.30;45.60
802;DHT22;383;48.766;9.270;2023-07-13T09:41:57;26.30;44.70
802;DHT22;383;48.766;9.270;2023-07-13T09:44:31;26.20;45.20
802;DHT22;383;48.766;9.270;2023-07-13T09:47:01;26.20;45.00
802;DHT22;383;48.766;9.270;2023-07-13T09:49:34;26.00;45.30
802;DHT22;383;48.766;9.270;2023-07-13T09:52:03;26.10;44.80
802;DHT22;383;48.766;9.270;2023-07-13T09:54:34;26.00;45.10
802;DHT22;383;48.766;9.270;2023-07-13T09:57:02;26.10;45.20
802;DHT22;383;48.766;9.270;2023-07-13T09:59:30;26.10;45.70
802;DHT22;383;48.766;9.270;2023-07-13T10:01:57;26.40;45.10
802;DHT22;383;48.766;9.270;2023-07-13T10:04:29;26.70;43.50
802;DHT22;383;48.766;9.270;2023-07-13T10:07:05;26.90;42.70
802;DHT22;383;48.766;9.270;2023-07-13T10:09:34;27.00;42.40
802;DHT22;383;48.766;9.270;2023-07-13T10:12:01;26.90;42.80
802;DHT22;383;48.766;9.270;2023-07-13T10:14:29;26.90;43.10
802;DHT22;383;48.766;9.270;2023-07-13T10:16:58;26.80;42.70
802;DHT22;383;48.766;9.270;2023-07-13T10:19:31;26.80;44.10
802;DHT22;383;48.766;9.270;2023-07-13T10:22:00;26.90;44.20
802;DHT22;383;48.766;9.270;2023-07-13T10:24:31;26.90;43.80
802;DHT22;383;48.766;9.270;2023-07-13T10:27:02;26.90;43.20
802;DHT22;383;48.766;9.270;2023-07-13T10:29:36;27.10;43.70
802;DHT22;383;48.766;9.270;2023-07-13T10:32:04;27.40;44.00
802;DHT22;383;48.766;9.270;2023-07-13T10:37:05;27.90;41.60
802;DHT22;383;48.766;9.270;2023-07-13T10:39:35;27.90;42.10
802;DHT22;383;48.766;9.270;2023-07-13T10:42:05;28.10;42.40
802;DHT22;383;48.766;9.270;2023-07-13T10:44:33;28.40;40.90
802;DHT22;383;48.766;9.270;2023-07-13T10:47:02;28.60;39.70
802;DHT22;383;48.766;9.270;2023-07-13T10:49:32;28.50;40.40
802;DHT22;383;48.766;9.270;2023-07-13T10:52:02;28.50;40.70
802;DHT22;383;48.766;9.270;2023-07-13T10:54:31;28.50;41.50
802;DHT22;383;48.766;9.270;2023-07-13T10:57:16;28.60;43.50
802;DHT22;383;48.766;9.270;2023-07-13T10:59:46;28.80;41.40
802;DHT22;383;48.766;9.270;2023-07-13T11:02:23;28.90;39.40
802;DHT22;383;48.766;9.270;2023-07-13T11:04:53;28.70;40.60
802;DHT22;383;48.766;9.270;2023-07-13T11:07:22;28.50;39.60
802;DHT22;383;48.766;9.270;2023-07-13T11:09:51;28.60;42.10
802;DHT22;383;48.766;9.270;2023-07-13T11:12:51;28.70;40.60
802;DHT22;383;48.766;9.270;2023-07-13T11:15:32;28.70;40.60
802;DHT22;383;48.766;9.270;2023-07-13T11:18:03;28.70;40.00
802;DHT22;383;48.766;9.270;2023-07-13T11:20:38;28.50;40.50
802;DHT22;383;48.766;9.270;2023-07-13T11:23:26;28.60;40.60
802;DHT22;383;48.766;9.270;2023-07-13T11:25:53;28.60;39.70
802;DHT22;383;48.766;9.270;2023-07-13T11:28:26;28.60;39.10
802;DHT22;383;48.766;9.270;2023-07-13T11:31:04;28.50;40.50
802;DHT22;383;48.766;9.270;2023-07-13T11:33:57;28.60;41.10
802;DHT22;383;48.766;9.270;2023-07-13T11:36:30;28.80;39.30
802;DHT22;383;48.766;9.270;2023-07-13T11:39:02;28.60;40.50
802;DHT22;383;48.766;9.270;2023-07-13T11:41:31;28.50;40.20
802;DHT22;383;48.766;9.270;2023-07-13T11:44:10;28.40;40.60
802;DHT22;383;48.766;9.270;2023-07-13T11:46:37;28.10;41.50
802;DHT22;383;48.766;9.270;2023-07-13T11:49:05;27.80;42.40
802;DHT22;383;48.766;9.270;2023-07-13T11:51:34;27.60;41.90
802;DHT22;383;48.766;9.270;2023-07-13T11:54:04;27.50;42.10
802;DHT22;383;48.766;9.270;2023-07-13T11:56:32;27.50;43.20
802;DHT22;383;48.766;9.270;2023-07-13T11:59:06;27.50;42.50
802;DHT22;383;48.766;9.270;2023-07-13T12:01:34;27.70;41.60
802;DHT22;383;48.766;9.270;2023-07-13T12:04:04;27.60;42.20
802;DHT22;383;48.766;9.270;2023-07-13T12:06:35;27.70;42.00
802;DHT22;383;48.766;9.270;2023-07-13T12:09:11;27.70;41.20
802;DHT22;383;48.766;9.270;2023-07-13T12:11:40;27.70;43.00
802;DHT22;383;48.766;9.270;2023-07-13T12:14:14;27.70;42.60
802;DHT22;383;48.766;9.270;2023-07-13T12:16:42;27.60;42.20
802;DHT22;383;48.766;9.270;2023-07-13T12:19:18;27.50;43.10
802;DHT22;383;48.766;9.270;2023-07-13T12:21:46;27.50;43.50
802;DHT22;383;48.766;9.270;2023-07-13T12:24:14;27.50;42.80
802;DHT22;383;48.766;9.270;2023-07-13T12:26:41;27.70;41.40
802;DHT22;383;48.766;9.270;2023-07-13T12:29:11;28.10;42.00
802;DHT22;383;48.766;9.270;2023-07-13T12:31:42;28.50;40.60
802;DHT22;383;48.766;9.270;2023-07-13T12:34:11;28.80;40.40
802;DHT22;383;48.766;9.270;2023-07-13T12:36:41;29.10;41.00
802;DHT22;383;48.766;9.270;2023-07-13T12:39:15;29.40;39.50
802;DHT22;383;48.766;9.270;2023-07-13T12:41:42;29.60;37.90
802;DHT22;383;48.766;9.270;2023-07-13T12:44:12;29.80;39.60
802;DHT22;383;48.766;9.270;2023-07-13T12:46:41;29.80;38.10
802;DHT22;383;48.766;9.270;2023-07-13T12:49:23;29.80;37.50
802;DHT22;383;48.766;9.270;2023-07-13T12:51:51;29.70;38.80
802;DHT22;383;48.766;9.270;2023-07-13T12:54:21;29.70;38.30
802;DHT22;383;48.766;9.270;2023-07-13T12:56:50;29.50;37.90
802;DHT22;383;48.766;9.270;2023-07-13T12:59:19;29.40;37.90
802;DHT22;383;48.766;9.270;2023-07-13T13:01:48;29.00;39.10
802;DHT22;383;48.766;9.270;2023-07-13T13:04:16;29.00;38.30
802;DHT22;383;48.766;9.270;2023-07-13T13:06:47;28.90;38.50
802;DHT22;383;48.766;9.270;2023-07-13T13:09:15;28.70;39.70
802;DHT22;383;48.766;9.270;2023-07-13T13:11:42;28.60;39.60
802;DHT22;383;48.766;9.270;2023-07-13T13:14:09;28.50;39.10
802;DHT22;383;48.766;9.270;2023-07-13T13:16:48;28.40;38.90
802;DHT22;383;48.766;9.270;2023-07-13T13:19:17;28.50;38.80
802;DHT22;383;48.766;9.270;2023-07-13T13:21:46;28.70;40.40
802;DHT22;383;48.766;9.270;2023-07-13T13:24:14;29.00;38.60
802;DHT22;383;48.766;9.270;2023-07-13T13:26:41;29.20;38.00
802;DHT22;383;48.766;9.270;2023-07-13T13:29:12;29.10;37.50
802;DHT22;383;48.766;9.270;2023-07-13T13:31:40;29.00;38.90
802;DHT22;383;48.766;9.270;2023-07-13T13:34:10;29.00;38.30
802;DHT22;383;48.766;9.270;2023-07-13T13:36:37;29.20;38.30
802;DHT22;383;48.766;9.270;2023-07-13T13:39:18;29.50;38.60
802;DHT22;383;48.766;9.270;2023-07-13T13:41:45;29.60;38.10
802;DHT22;383;48.766;9.270;2023-07-13T13:44:17;29.50;37.90
802;DHT22;383;48.766;9.270;2023-07-13T13:46:46;29.70;38.30
802;DHT22;383;48.766;9.270;2023-07-13T13:49:17;29.90;36.90
802;DHT22;383;48.766;9.270;2023-07-13T13:51:45;30.10;36.40
802;DHT22;383;48.766;9.270;2023-07-13T13:54:13;30.40;36.30
802;DHT22;383;48.766;9.270;2023-07-13T13:56:42;30.70;35.30
802;DHT22;383;48.766;9.270;2023-07-13T13:59:09;30.80;35.80
802;DHT22;383;48.766;9.270;2023-07-13T14:01:36;30.70;35.90
802;DHT22;383;48.766;9.270;2023-07-13T14:04:04;30.80;35.00
802;DHT22;383;48.766;9.270;2023-07-13T14:06:33;30.90;35.30
802;DHT22;383;48.766;9.270;2023-07-13T14:09:00;31.10;35.00
802;DHT22;383;48.766;9.270;2023-07-13T14:11:27;30.90;34.50
802;DHT22;383;48.766;9.270;2023-07-13T14:13:58;31.10;34.70
802;DHT22;383;48.766;9.270;2023-07-13T14:16:27;31.20;34.20
802;DHT22;383;48.766;9.270;2023-07-13T14:18:55;31.40;35.00
802;DHT22;383;48.766;9.270;2023-07-13T14:21:24;31.50;33.70
802;DHT22;383;48.766;9.270;2023-07-13T14:23:52;31.50;33.40
802;DHT22;383;48.766;9.270;2023-07-13T14:26:20;31.20;34.80
802;DHT22;383;48.766;9.270;2023-07-13T14:28:51;31.40;34.20
802;DHT22;383;48.766;9.270;2023-07-13T14:31:19;31.50;33.40
802;DHT22;383;48.766;9.270;2023-07-13T14:33:46;31.60;33.80
802;DHT22;383;48.766;9.270;2023-07-13T14:36:23;31.50;33.80
802;DHT22;383;48.766;9.270;2023-07-13T14:38:51;31.30;34.00
802;DHT22;383;48.766;9.270;2023-07-13T14:41:19;30.90;34.80
802;DHT22;383;48.766;9.270;2023-07-13T14:43:45;30.60;34.90
802;DHT22;383;48.766;9.270;2023-07-13T14:46:21;30.00;36.20
802;DHT22;383;48.766;9.270;2023-07-13T14:48:50;29.70;36.00
802;DHT22;383;48.766;9.270;2023-07-13T14:51:17;29.40;36.30
802;DHT22;383;48.766;9.270;2023-07-13T14:53:44;29.20;36.20
802;DHT22;383;48.766;9.270;2023-07-13T14:56:12;29.20;35.90
802;DHT22;383;48.766;9.270;2023-07-13T14:58:40;29.30;37.90
802;DHT22;383;48.766;9.270;2023-07-13T15:01:10;29.50;36.50
802;DHT22;383;48.766;9.270;2023-07-13T15:03:41;29.80;36.40
802;DHT22;383;48.766;9.270;2023-07-13T15:06:10;30.20;36.20
802;DHT22;383;48.766;9.270;2023-07-13T15:08:37;30.50;35.90
802;DHT22;383;48.766;9.270;2023-07-13T15:11:04;30.70;36.30
802;DHT22;383;48.766;9.270;2023-07-13T15:13:32;31.10;35.40
802;DHT22;383;48.766;9.270;2023-07-13T15:15:59;31.50;35.40
802;DHT22;383;48.766;9.270;2023-07-13T15:18:26;31.80;34.70
802;DHT22;383;48.766;9.270;2023-07-13T15:20:53;32.00;33.30
802;DHT22;383;48.766;9.270;2023-07-13T15:23:22;32.00;33.90
802;DHT22;383;48.766;9.270;2023-07-13T15:25:49;31.50;33.90
802;DHT22;383;48.766;9.270;2023-07-13T15:28:16;31.20;34.80
802;DHT22;383;48.766;9.270;2023-07-13T15:30:46;31.10;35.00
802;DHT22;383;48.766;9.270;2023-07-13T15:33:16;30.80;35.20
802;DHT22;383;48.766;9.270;2023-07-13T15:35:43;30.80;35.20
802;DHT22;383;48.766;9.270;2023-07-13T15:38:17;30.80;35.70
802;DHT22;383;48.766;9.270;2023-07-13T15:40:44;30.90;35.80
802;DHT22;383;48.766;9.270;2023-07-13T15:43:11;30.90;35.50
802;DHT22;383;48.766;9.270;2023-07-13T15:45:38;30.80;35.70
802;DHT22;383;48.766;9.270;2023-07-13T15:48:17;30.70;35.00
802;DHT22;383;48.766;9.270;2023-07-13T15:50:46;30.70;35.40
802;DHT22;383;48.766;9.270;2023-07-13T15:53:15;30.70;35.80
802;DHT22;383;48.766;9.270;2023-07-13T15:55:44;30.90;35.40
802;DHT22;383;48.766;9.270;2023-07-13T15:58:12;31.00;34.80
802;DHT22;383;48.766;9.270;2023-07-13T16:00:40;31.10;34.90
802;DHT22;383;48.766;9.270;2023-07-13T16:03:07;30.90;35.50
802;DHT22;383;48.766;9.270;2023-07-13T16:05:36;30.90;35.00
802;DHT22;383;48.766;9.270;2023-07-13T16:08:03;30.80;34.40
802;DHT22;383;48.766;9.270;2023-07-13T16:10:34;30.60;35.40
802;DHT22;383;48.766;9.270;2023-07-13T16:13:03;30.80;34.70
802;DHT22;383;48.766;9.270;2023-07-13T16:15:31;31.00;34.40
802;DHT22;383;48.766;9.270;2023-07-13T16:17:58;31.10;35.00
802;DHT22;383;48.766;9.270;2023-07-13T16:20:24;31.10;34.50
802;DHT22;383;48.766;9.270;2023-07-13T16:22:54;31.10;34.70
802;DHT22;383;48.766;9.270;2023-07-13T16:25:23;31.10;35.00
802;DHT22;383;48.766;9.270;2023-07-13T16:27:51;31.20;34.40
802;DHT22;383;48.766;9.270;2023-07-13T16:30:20;30.70;34.40
802;DHT22;383;48.766;9.270;2023-07-13T16:32:48;30.40;34.70
802;DHT22;383;48.766;9.270;2023-07-13T16:35:17;30.50;35.00
802;DHT22;383;48.766;9.270;2023-07-13T16:37:43;30.50;34.30
802;DHT22;383;48.766;9.270;2023-07-13T16:40:21;30.30;34.90
802;DHT22;383;48.766;9.270;2023-07-13T16:42:49;29.90;36.00
802;DHT22;383;48.766;9.270;2023-07-13T16:45:18;29.80;36.00
802;DHT22;383;48.766;9.270;2023-07-13T16:47:46;29.90;35.70
802;DHT22;383;48.766;9.270;2023-07-13T16:50:15;29.90;36.40
802;DHT22;383;48.766;9.270;2023-07-13T16:52:42;30.00;35.40
802;DHT22;383;48.766;9.270;2023-07-13T16:55:10;29.80;35.50
802;DHT22;383;48.766;9.270;2023-07-13T16:57:38;29.50;36.90
802;DHT22;383;48.766;9.270;2023-07-13T17:00:16;29.40;37.00
802;DHT22;383;48.766;9.270;2023-07-13T17:02:45;29.30;36.80
802;DHT22;383;48.766;9.270;2023-07-13T17:05:12;29.20;37.50
802;DHT22;383;48.766;9.270;2023-07-13T17:07:39;29.00;37.60
802;DHT22;383;48.766;9.270;2023-07-13T17:10:16;28.70;37.60
802;DHT22;383;48.766;9.270;2023-07-13T17:12:46;28.40;37.80
802;DHT22;383;48.766;9.270;2023-07-13T17:15:13;28.30;38.00
802;DHT22;383;48.766;9.270;2023-07-13T17:17:40;28.30;39.30
802;DHT22;383;48.766;9.270;2023-07-13T17:20:16;28.20;39.00
802;DHT22;383;48.766;9.270;2023-07-13T17:22:43;28.10;39.60
802;DHT22;383;48.766;9.270;2023-07-13T17:25:12;28.10;39.40
802;DHT22;383;48.766;9.270;2023-07-13T17:27:39;28.00;39.90
802;DHT22;383;48.766;9.270;2023-07-13T17:30:14;27.90;39.10
802;DHT22;383;48.766;9.270;2023-07-13T17:32:42;27.80;39.30
802;DHT22;383;48.766;9.270;2023-07-13T17:35:24;27.70;39.40